createdAt,value
2018-12-30T00:00:08.847Z,13.60
2018-12-30T00:02:37.999Z,12.27
2018-12-30T00:05:07.408Z,12.30
2018-12-30T00:07:36.936Z,12.47
2018-12-30T00:10:06.506Z,9.77
2018-12-30T00:12:35.673Z,12.03
2018-12-30T00:15:05.013Z,12.63
2018-12-30T00:17:34.165Z,11.13
2018-12-30T00:20:03.850Z,11.57
2018-12-30T00:22:33.000Z,11.37
2018-12-30T00:25:02.146Z,12.37
2018-12-30T00:27:31.282Z,10.07
2018-12-30T00:30:00.412Z,11.13
2018-12-30T00:32:29.574Z,13.47
2018-12-30T00:34:58.732Z,11.43
2018-12-30T00:37:27.893Z,11.87
2018-12-30T00:39:57.023Z,11.87
2018-12-30T00:42:26.153Z,10.63
2018-12-30T00:44:55.585Z,11.20
2018-12-30T00:47:24.716Z,13.17
2018-12-30T00:49:53.861Z,11.63
2018-12-30T00:52:23.002Z,13.63
2018-12-30T00:54:52.147Z,11.50
2018-12-30T00:57:21.282Z,12.50
2018-12-30T00:59:50.443Z,13.13
2018-12-30T01:02:19.572Z,11.43
2018-12-30T01:04:48.716Z,11.67
2018-12-30T01:07:17.840Z,10.90
2018-12-30T01:09:46.982Z,13.63
2018-12-30T01:12:16.371Z,11.27
2018-12-30T01:14:45.522Z,11.53
2018-12-30T01:17:14.659Z,13.43
2018-12-30T01:19:43.803Z,11.47
2018-12-30T01:22:12.938Z,11.90
2018-12-30T01:24:42.084Z,14.23
2018-12-30T01:27:11.221Z,12.03
2018-12-30T01:29:40.359Z,12.27
2018-12-30T01:32:09.503Z,10.17
2018-12-30T01:34:38.653Z,10.23
2018-12-30T01:37:07.796Z,12.73
2018-12-30T01:39:36.944Z,12.90
2018-12-30T01:42:06.119Z,12.67
2018-12-30T01:44:35.281Z,12.27
2018-12-30T01:47:04.422Z,9.13
2018-12-30T01:49:33.562Z,11.80
2018-12-30T01:52:02.711Z,12.63
2018-12-30T01:54:31.866Z,10.03
2018-12-30T01:57:00.990Z,7.83
2018-12-30T01:59:30.136Z,10.53
2018-12-30T02:01:59.262Z,11.83
2018-12-30T02:04:28.699Z,11.43
2018-12-30T02:06:57.822Z,12.00
2018-12-30T02:09:26.970Z,10.43
2018-12-30T02:11:56.099Z,11.33
2018-12-30T02:14:25.237Z,10.70
2018-12-30T02:16:54.751Z,11.63
2018-12-30T02:19:23.888Z,9.83
2018-12-30T02:21:53.047Z,10.93
2018-12-30T02:24:25.156Z,10.40
2018-12-30T02:26:54.303Z,9.37
2018-12-30T02:29:23.436Z,13.43
2018-12-30T02:31:52.578Z,11.27
2018-12-30T02:34:21.721Z,8.13
2018-12-30T02:36:50.849Z,9.20
2018-12-30T02:39:19.988Z,12.03
2018-12-30T02:41:49.141Z,11.70
2018-12-30T02:44:18.289Z,10.53
2018-12-30T02:46:47.442Z,10.93
2018-12-30T02:49:16.584Z,11.13
2018-12-30T02:51:50.292Z,11.53
2018-12-30T02:54:16.583Z,11.93
2018-12-30T02:56:45.922Z,9.50
2018-12-30T02:59:15.105Z,12.20
2018-12-30T03:01:44.260Z,11.40
2018-12-30T03:04:13.766Z,13.53
2018-12-30T03:06:42.919Z,10.70
2018-12-30T03:09:12.056Z,9.67
2018-12-30T03:11:41.202Z,9.37
2018-12-30T03:14:10.326Z,14.13
2018-12-30T03:16:39.481Z,10.80
2018-12-30T03:19:08.611Z,13.33
2018-12-30T03:21:37.758Z,8.67
2018-12-30T03:24:06.884Z,8.87
2018-12-30T03:26:36.041Z,10.10
2018-12-30T03:29:05.176Z,9.63
2018-12-30T03:31:34.325Z,11.47
2018-12-30T03:34:03.453Z,10.27
2018-12-30T03:36:32.615Z,11.23
2018-12-30T03:39:01.851Z,10.67
2018-12-30T03:41:30.996Z,11.10
2018-12-30T03:44:00.119Z,9.97
2018-12-30T03:46:29.254Z,9.90
2018-12-30T03:48:58.403Z,10.47
2018-12-30T03:51:27.539Z,11.83
2018-12-30T03:53:56.679Z,10.50
2018-12-30T03:56:25.830Z,11.87
2018-12-30T03:58:54.968Z,11.93
2018-12-30T04:01:24.110Z,10.93
2018-12-30T04:03:53.252Z,14.00
2018-12-30T04:06:22.424Z,14.50
2018-12-30T04:08:51.563Z,9.20
2018-12-30T04:11:20.713Z,10.27
2018-12-30T04:13:49.849Z,9.07
2018-12-30T04:16:18.996Z,11.03
2018-12-30T04:18:48.123Z,8.27
2018-12-30T04:21:17.259Z,9.03
2018-12-30T04:23:46.406Z,11.87
2018-12-30T04:26:15.526Z,9.23
2018-12-30T04:28:44.668Z,10.07
2018-12-30T04:31:13.797Z,9.33
2018-12-30T04:33:42.957Z,8.60
2018-12-30T04:36:12.087Z,11.27
2018-12-30T04:38:41.242Z,9.80
2018-12-30T04:41:10.372Z,9.40
2018-12-30T04:43:39.534Z,8.93
2018-12-30T04:46:08.664Z,8.33
2018-12-30T04:48:37.829Z,12.43
2018-12-30T04:51:06.967Z,13.40
2018-12-30T04:53:36.111Z,11.20
2018-12-30T04:56:05.244Z,10.20
2018-12-30T04:58:34.459Z,8.80
2018-12-30T05:01:03.615Z,11.43
2018-12-30T05:03:32.758Z,9.63
2018-12-30T05:06:01.896Z,10.90
2018-12-30T05:08:31.050Z,10.03
2018-12-30T05:11:00.173Z,10.80
2018-12-30T05:13:29.338Z,10.13
2018-12-30T05:15:58.478Z,10.43
2018-12-30T05:18:27.635Z,9.00
2018-12-30T05:20:56.767Z,8.63
2018-12-30T05:23:25.916Z,9.07
2018-12-30T05:25:55.055Z,9.60
2018-12-30T05:28:24.199Z,9.83
2018-12-30T05:30:53.328Z,9.40
2018-12-30T05:33:22.481Z,8.37
2018-12-30T05:35:51.615Z,8.27
2018-12-30T05:38:20.764Z,8.57
2018-12-30T05:40:49.897Z,9.77
2018-12-30T05:43:19.052Z,8.63
2018-12-30T05:45:48.185Z,10.57
2018-12-30T05:48:17.337Z,10.97
2018-12-30T05:50:46.452Z,9.73
2018-12-30T05:53:15.600Z,8.20
2018-12-30T05:55:44.760Z,13.27
2018-12-30T05:58:13.909Z,11.60
2018-12-30T06:00:43.042Z,11.37
2018-12-30T06:03:12.184Z,10.13
2018-12-30T06:05:41.314Z,8.70
2018-12-30T06:08:10.470Z,9.00
2018-12-30T06:10:39.610Z,9.23
2018-12-30T06:13:08.757Z,8.40
2018-12-30T06:15:37.910Z,10.90
2018-12-30T06:18:07.057Z,11.70
2018-12-30T06:20:36.186Z,9.90
2018-12-30T06:23:05.343Z,8.73
2018-12-30T06:25:34.496Z,10.47
2018-12-30T06:28:03.907Z,8.93
2018-12-30T06:30:33.026Z,7.70
2018-12-30T06:33:02.182Z,10.27
2018-12-30T06:35:31.296Z,9.23
2018-12-30T06:38:00.429Z,7.20
2018-12-30T06:40:29.558Z,8.53
2018-12-30T06:42:58.697Z,9.80
2018-12-30T06:45:27.830Z,10.90
2018-12-30T06:47:56.998Z,8.83
2018-12-30T06:50:26.118Z,9.87
2018-12-30T06:52:57.785Z,10.97
2018-12-30T06:55:26.144Z,9.87
2018-12-30T06:57:55.333Z,8.73
2018-12-30T07:00:24.463Z,10.13
2018-12-30T07:02:53.632Z,8.23
2018-12-30T07:05:22.767Z,8.37
2018-12-30T07:07:51.917Z,7.90
2018-12-30T07:10:21.054Z,9.93
2018-12-30T07:12:50.203Z,11.30
2018-12-30T07:15:19.325Z,10.27
2018-12-30T07:17:48.462Z,10.77
2018-12-30T07:20:17.620Z,11.63
2018-12-30T07:22:46.746Z,11.20
2018-12-30T07:25:15.895Z,7.80
2018-12-30T07:27:45.028Z,10.10
2018-12-30T07:30:14.182Z,9.20
2018-12-30T07:32:43.380Z,7.77
2018-12-30T07:35:12.526Z,9.27
2018-12-30T07:37:41.658Z,11.10
2018-12-30T07:40:10.800Z,8.60
2018-12-30T07:42:39.944Z,11.60
2018-12-30T07:45:09.086Z,11.80
2018-12-30T07:47:38.210Z,11.90
2018-12-30T07:50:08.119Z,14.90
2018-12-30T07:52:37.255Z,9.97
2018-12-30T07:55:06.399Z,8.77
2018-12-30T07:57:35.526Z,10.20
2018-12-30T08:00:07.073Z,9.07
2018-12-30T08:02:36.207Z,9.53
2018-12-30T08:05:05.621Z,8.30
2018-12-30T08:07:34.758Z,13.73
2018-12-30T08:10:03.900Z,14.40
2018-12-30T08:12:33.046Z,16.87
2018-12-30T08:15:02.187Z,15.40
2018-12-30T08:17:31.325Z,12.43
2018-12-30T08:20:00.482Z,13.50
2018-12-30T08:22:29.616Z,15.87
2018-12-30T08:24:58.766Z,13.17
2018-12-30T08:27:27.891Z,14.33
2018-12-30T08:29:57.125Z,12.33
2018-12-30T08:32:26.258Z,12.20
2018-12-30T08:34:55.401Z,14.70
2018-12-30T08:37:24.525Z,11.97
2018-12-30T08:39:53.689Z,9.70
2018-12-30T08:42:22.813Z,11.63
2018-12-30T08:44:51.978Z,13.33
2018-12-30T08:47:21.111Z,11.23
2018-12-30T08:49:50.274Z,11.97
2018-12-30T08:52:19.407Z,11.57
2018-12-30T08:54:48.565Z,12.10
2018-12-30T08:57:17.684Z,10.73
2018-12-30T08:59:46.848Z,14.87
2018-12-30T09:02:15.977Z,9.80
2018-12-30T09:04:45.115Z,13.83
2018-12-30T09:07:14.248Z,14.83
2018-12-30T09:09:43.574Z,14.33
2018-12-30T09:12:12.711Z,27.27
2018-12-30T09:14:41.871Z,17.80
2018-12-30T09:17:11.003Z,15.87
2018-12-30T09:19:40.149Z,12.60
2018-12-30T09:22:09.286Z,11.17
2018-12-30T09:24:38.436Z,18.17
2018-12-30T09:27:07.565Z,15.87
2018-12-30T09:29:36.715Z,14.67
2018-12-30T09:32:05.856Z,17.27
2018-12-30T09:34:35.012Z,14.50
2018-12-30T09:37:04.142Z,15.03
2018-12-30T09:39:33.281Z,13.03
2018-12-30T09:42:02.435Z,11.33
2018-12-30T09:44:31.569Z,14.57
2018-12-30T09:47:00.773Z,9.10
2018-12-30T09:49:29.941Z,13.63
2018-12-30T09:51:59.081Z,16.17
2018-12-30T09:54:28.202Z,13.67
2018-12-30T09:56:57.340Z,9.27
2018-12-30T09:59:26.484Z,14.27
2018-12-30T10:01:55.664Z,12.07
2018-12-30T10:04:24.792Z,14.70
2018-12-30T10:06:53.933Z,12.03
2018-12-30T10:09:23.063Z,17.13
2018-12-30T10:11:52.203Z,11.77
2018-12-30T10:14:21.325Z,15.53
2018-12-30T10:16:50.465Z,15.37
2018-12-30T10:19:19.583Z,9.80
2018-12-30T10:21:48.728Z,13.67
2018-12-30T10:24:17.858Z,14.30
2018-12-30T10:26:47.012Z,10.17
2018-12-30T10:29:16.148Z,18.20
2018-12-30T10:31:45.287Z,15.03
2018-12-30T10:34:14.412Z,11.43
2018-12-30T10:36:43.562Z,14.37
2018-12-30T10:39:12.703Z,14.07
2018-12-30T10:41:41.853Z,12.47
2018-12-30T10:44:10.983Z,10.40
2018-12-30T10:46:40.124Z,15.73
2018-12-30T10:49:09.265Z,13.93
2018-12-30T10:51:38.408Z,12.97
2018-12-30T10:54:07.542Z,11.97
2018-12-30T10:56:36.685Z,12.73
2018-12-30T10:59:05.816Z,14.10
2018-12-30T11:01:34.970Z,15.03
2018-12-30T11:04:04.092Z,12.43
2018-12-30T11:06:33.256Z,11.60
2018-12-30T11:09:02.392Z,13.83
2018-12-30T11:11:31.536Z,13.43
2018-12-30T11:14:00.673Z,13.13
2018-12-30T11:16:29.818Z,17.57
2018-12-30T11:18:58.950Z,9.90
2018-12-30T11:21:28.086Z,10.33
2018-12-30T11:23:57.215Z,8.83
2018-12-30T11:26:26.372Z,11.03
2018-12-30T11:28:55.499Z,9.77
2018-12-30T11:31:24.641Z,11.70
2018-12-30T11:33:53.787Z,8.83
2018-12-30T11:36:22.919Z,7.13
2018-12-30T11:38:52.065Z,13.93
2018-12-30T11:41:21.214Z,17.30
2018-12-30T11:43:50.362Z,12.97
2018-12-30T11:46:19.506Z,14.07
2018-12-30T11:48:48.647Z,15.17
2018-12-30T11:51:17.797Z,12.10
2018-12-30T11:53:46.940Z,17.37
2018-12-30T11:56:16.092Z,11.27
2018-12-30T11:58:45.221Z,11.67
2018-12-30T12:01:14.371Z,11.87
2018-12-30T12:03:43.513Z,10.10
2018-12-30T12:06:12.650Z,8.53
2018-12-30T12:08:41.788Z,11.23
2018-12-30T12:11:10.933Z,12.70
2018-12-30T12:13:40.074Z,12.33
2018-12-30T12:16:09.213Z,11.80
2018-12-30T12:18:38.363Z,8.87
2018-12-30T12:21:07.492Z,10.57
2018-12-30T12:23:36.637Z,10.17
2018-12-30T12:26:05.771Z,12.27
2018-12-30T12:28:34.914Z,9.63
2018-12-30T12:31:04.046Z,9.67
2018-12-30T12:33:33.200Z,9.20
2018-12-30T12:36:02.333Z,9.83
2018-12-30T12:38:31.488Z,9.07
2018-12-30T12:41:00.612Z,7.30
2018-12-30T12:43:29.757Z,9.73
2018-12-30T12:45:58.891Z,6.50
2018-12-30T12:48:28.046Z,8.90
2018-12-30T12:50:57.173Z,7.00
2018-12-30T12:53:26.310Z,10.27
2018-12-30T12:55:55.441Z,11.70
2018-12-30T12:58:24.590Z,9.60
2018-12-30T13:00:53.717Z,7.73
2018-12-30T13:03:22.858Z,9.40
2018-12-30T13:05:51.987Z,11.53
2018-12-30T13:08:21.157Z,11.97
2018-12-30T13:10:50.276Z,8.77
2018-12-30T13:13:19.416Z,8.53
2018-12-30T13:15:48.553Z,11.30
2018-12-30T13:18:17.705Z,12.03
2018-12-30T13:20:46.841Z,14.27
2018-12-30T13:23:16.008Z,14.00
2018-12-30T13:25:45.134Z,10.70
2018-12-30T13:28:14.286Z,12.47
2018-12-30T13:30:43.420Z,10.27
2018-12-30T13:33:12.573Z,10.80
2018-12-30T13:35:43.462Z,14.07
2018-12-30T13:38:12.589Z,12.07
2018-12-30T13:40:41.722Z,23.00
2018-12-30T13:43:10.892Z,15.83
2018-12-30T13:45:40.036Z,14.37
2018-12-30T13:48:09.179Z,16.43
2018-12-30T13:50:38.312Z,12.30
2018-12-30T13:53:07.459Z,12.37
2018-12-30T13:55:36.596Z,9.43
2018-12-30T13:58:05.742Z,12.30
2018-12-30T14:00:35.015Z,9.17
2018-12-30T14:03:04.265Z,11.20
2018-12-30T14:05:33.407Z,16.40
2018-12-30T14:08:02.565Z,11.47
2018-12-30T14:10:31.697Z,14.07
2018-12-30T14:13:01.697Z,14.50
2018-12-30T14:15:30.840Z,7.90
2018-12-30T14:17:59.986Z,12.90
2018-12-30T14:20:29.115Z,15.90
2018-12-30T14:22:58.278Z,13.80
2018-12-30T14:25:27.411Z,13.53
2018-12-30T14:27:56.534Z,11.23
2018-12-30T14:30:25.689Z,9.47
2018-12-30T14:32:54.820Z,9.00
2018-12-30T14:35:23.969Z,11.87
2018-12-30T14:37:53.106Z,15.83
2018-12-30T14:40:22.252Z,11.57
2018-12-30T14:42:51.381Z,10.63
2018-12-30T14:45:20.533Z,11.43
2018-12-30T14:47:49.653Z,8.90
2018-12-30T14:50:18.796Z,9.57
2018-12-30T14:52:47.924Z,10.80
2018-12-30T14:55:17.061Z,10.50
2018-12-30T14:57:46.199Z,14.60
2018-12-30T15:00:15.421Z,12.70
2018-12-30T15:02:44.550Z,11.67
2018-12-30T15:05:13.700Z,9.43
2018-12-30T15:07:42.823Z,8.27
2018-12-30T15:10:11.983Z,6.93
2018-12-30T15:12:41.204Z,11.27
2018-12-30T15:15:10.346Z,8.97
2018-12-30T15:17:39.480Z,8.80
2018-12-30T15:20:08.895Z,9.50
2018-12-30T15:22:38.032Z,13.37
2018-12-30T15:25:11.653Z,17.57
2018-12-30T15:27:38.044Z,18.07
2018-12-30T15:30:09.104Z,17.70
2018-12-30T15:32:38.252Z,19.43
2018-12-30T15:35:07.788Z,20.53
2018-12-30T15:37:36.915Z,16.60
2018-12-30T15:40:06.734Z,16.33
2018-12-30T15:42:35.889Z,15.43
2018-12-30T15:45:06.834Z,17.87
2018-12-30T15:47:36.004Z,11.77
2018-12-30T15:50:07.723Z,15.53
2018-12-30T15:52:36.854Z,10.10
2018-12-30T15:55:06.087Z,17.10
2018-12-30T15:57:35.292Z,14.57
2018-12-30T16:00:06.167Z,11.43
2018-12-30T16:02:35.307Z,14.63
2018-12-30T16:05:04.793Z,11.70
2018-12-30T16:07:33.927Z,10.80
2018-12-30T16:10:03.456Z,9.07
2018-12-30T16:12:32.611Z,9.90
2018-12-30T16:15:01.742Z,12.13
2018-12-30T16:17:30.889Z,9.13
2018-12-30T16:20:00.039Z,12.07
2018-12-30T16:22:29.176Z,14.53
2018-12-30T16:24:58.310Z,11.37
2018-12-30T16:27:27.486Z,13.93
2018-12-30T16:29:56.616Z,8.67
2018-12-30T16:32:25.775Z,11.87
2018-12-30T16:34:54.900Z,12.67
2018-12-30T16:37:24.428Z,10.17
2018-12-30T16:39:53.559Z,13.53
2018-12-30T16:42:22.705Z,9.93
2018-12-30T16:44:51.838Z,11.10
2018-12-30T16:47:20.995Z,12.77
2018-12-30T16:49:50.130Z,8.90
2018-12-30T16:52:19.283Z,11.47
2018-12-30T16:54:48.409Z,9.23
2018-12-30T16:57:17.570Z,10.13
2018-12-30T16:59:46.696Z,15.57
2018-12-30T17:02:15.841Z,14.97
2018-12-30T17:04:44.977Z,15.77
2018-12-30T17:07:14.132Z,14.57
2018-12-30T17:09:43.329Z,17.67
2018-12-30T17:12:12.511Z,11.57
2018-12-30T17:14:41.653Z,18.93
2018-12-30T17:17:10.802Z,18.13
2018-12-30T17:19:39.952Z,17.43
2018-12-30T17:22:09.112Z,18.40
2018-12-30T17:24:38.263Z,19.27
2018-12-30T17:27:07.429Z,17.53
2018-12-30T17:29:36.582Z,14.40
2018-12-30T17:32:05.880Z,21.60
2018-12-30T17:34:35.029Z,13.83
2018-12-30T17:37:04.191Z,16.10
2018-12-30T17:39:33.325Z,10.87
2018-12-30T17:42:02.478Z,18.00
2018-12-30T17:44:31.621Z,17.43
2018-12-30T17:47:00.762Z,13.57
2018-12-30T17:49:29.907Z,14.13
2018-12-30T17:51:59.050Z,16.63
2018-12-30T17:54:28.195Z,12.80
2018-12-30T17:56:57.329Z,9.33
2018-12-30T17:59:26.473Z,13.40
2018-12-30T18:01:55.604Z,10.63
2018-12-30T18:04:24.768Z,14.20
2018-12-30T18:06:53.906Z,10.27
2018-12-30T18:09:23.056Z,13.47
2018-12-30T18:11:52.191Z,15.30
2018-12-30T18:14:21.335Z,13.87
2018-12-30T18:16:50.486Z,16.27
2018-12-30T18:19:19.661Z,23.70
2018-12-30T18:21:48.801Z,16.07
2018-12-30T18:24:17.945Z,15.43
2018-12-30T18:26:47.099Z,16.27
2018-12-30T18:29:16.245Z,21.20
2018-12-30T18:31:45.388Z,19.20
2018-12-30T18:34:14.525Z,22.63
2018-12-30T18:36:43.673Z,16.17
2018-12-30T18:39:12.820Z,16.30
2018-12-30T18:41:41.961Z,16.03
2018-12-30T18:44:11.114Z,21.40
2018-12-30T18:46:40.252Z,24.63
2018-12-30T18:49:09.413Z,24.03
2018-12-30T18:51:38.553Z,22.97
2018-12-30T18:54:07.696Z,16.60
2018-12-30T18:56:36.836Z,26.13
2018-12-30T18:59:05.998Z,28.27
2018-12-30T19:01:35.135Z,21.77
2018-12-30T19:04:04.312Z,19.90
2018-12-30T19:06:33.449Z,20.83
2018-12-30T19:09:02.693Z,18.13
2018-12-30T19:11:31.844Z,18.07
2018-12-30T19:14:00.997Z,17.47
2018-12-30T19:16:30.154Z,16.60
2018-12-30T19:18:59.317Z,23.93
2018-12-30T19:21:28.450Z,22.47
2018-12-30T19:23:57.616Z,30.20
2018-12-30T19:26:26.757Z,27.50
2018-12-30T19:28:55.911Z,25.03
2018-12-30T19:31:25.052Z,21.53
2018-12-30T19:33:54.209Z,14.83
2018-12-30T19:36:23.353Z,12.30
2018-12-30T19:38:52.502Z,15.53
2018-12-30T19:41:21.638Z,15.27
2018-12-30T19:43:50.803Z,14.23
2018-12-30T19:46:19.926Z,15.43
2018-12-30T19:48:49.087Z,13.87
2018-12-30T19:51:18.216Z,15.47
2018-12-30T19:53:47.367Z,20.00
2018-12-30T19:56:21.920Z,20.63
2018-12-30T19:58:47.377Z,15.10
2018-12-30T20:01:16.518Z,15.23
2018-12-30T20:03:45.648Z,17.43
2018-12-30T20:06:14.823Z,13.47
2018-12-30T20:08:43.963Z,16.67
2018-12-30T20:11:13.112Z,18.13
2018-12-30T20:13:42.250Z,23.00
2018-12-30T20:16:11.403Z,23.07
2018-12-30T20:18:40.542Z,25.77
2018-12-30T20:21:09.707Z,22.13
2018-12-30T20:23:38.828Z,20.73
2018-12-30T20:26:08.066Z,21.67
2018-12-30T20:28:37.196Z,25.97
2018-12-30T20:31:06.341Z,24.97
2018-12-30T20:33:35.491Z,21.97
2018-12-30T20:36:04.637Z,16.63
2018-12-30T20:38:33.777Z,20.13
2018-12-30T20:41:02.916Z,16.97
2018-12-30T20:43:32.045Z,16.20
2018-12-30T20:46:01.179Z,13.77
2018-12-30T20:48:30.308Z,14.63
2018-12-30T20:50:59.442Z,11.27
2018-12-30T20:53:28.591Z,19.07
2018-12-30T20:55:57.729Z,18.23
2018-12-30T20:58:26.862Z,15.33
2018-12-30T21:00:56.033Z,16.27
2018-12-30T21:03:25.177Z,21.20
2018-12-30T21:05:54.329Z,30.00
2018-12-30T21:08:23.527Z,26.53
2018-12-30T21:10:52.678Z,19.30
2018-12-30T21:13:21.804Z,18.13
2018-12-30T21:15:50.983Z,19.00
2018-12-30T21:18:20.099Z,15.93
2018-12-30T21:20:49.253Z,25.43
2018-12-30T21:23:18.386Z,23.70
2018-12-30T21:25:47.548Z,20.33
2018-12-30T21:28:16.680Z,19.87
2018-12-30T21:30:45.851Z,17.50
2018-12-30T21:33:14.992Z,16.80
2018-12-30T21:35:44.154Z,20.67
2018-12-30T21:38:13.281Z,22.03
2018-12-30T21:40:42.432Z,24.43
2018-12-30T21:43:11.550Z,25.33
2018-12-30T21:45:40.707Z,21.20
2018-12-30T21:48:09.830Z,20.83
2018-12-30T21:50:38.971Z,22.97
2018-12-30T21:53:08.089Z,23.17
2018-12-30T21:55:37.243Z,19.40
2018-12-30T21:58:06.377Z,16.97
2018-12-30T22:00:35.522Z,19.20
2018-12-30T22:03:04.663Z,17.77
2018-12-30T22:05:33.817Z,20.13
2018-12-30T22:08:02.927Z,17.63
2018-12-30T22:10:32.081Z,16.70
2018-12-30T22:13:01.205Z,21.13
2018-12-30T22:15:30.356Z,19.00
2018-12-30T22:17:59.500Z,13.97
2018-12-30T22:20:28.810Z,15.00
2018-12-30T22:22:57.943Z,15.13
2018-12-30T22:25:27.075Z,16.43
2018-12-30T22:27:56.219Z,17.57
2018-12-30T22:30:25.355Z,13.60
2018-12-30T22:32:54.502Z,15.37
2018-12-30T22:35:23.628Z,15.10
2018-12-30T22:37:52.773Z,15.37
2018-12-30T22:40:21.891Z,15.20
2018-12-30T22:42:51.065Z,16.70
2018-12-30T22:45:20.206Z,14.17
2018-12-30T22:47:49.343Z,13.40
2018-12-30T22:50:18.485Z,13.97
2018-12-30T22:52:48.948Z,10.80
2018-12-30T22:55:18.234Z,13.30
2018-12-30T22:57:47.379Z,12.23
2018-12-30T23:00:26.837Z,13.80
2018-12-30T23:02:55.994Z,13.07
2018-12-30T23:05:25.179Z,13.23
2018-12-30T23:07:54.335Z,13.40
2018-12-30T23:10:23.463Z,14.30
2018-12-30T23:12:52.624Z,13.87
2018-12-30T23:15:21.742Z,14.97
2018-12-30T23:17:50.881Z,11.43
2018-12-30T23:20:20.019Z,11.70
2018-12-30T23:22:49.153Z,13.17
2018-12-30T23:25:18.285Z,11.77
2018-12-30T23:28:06.862Z,10.03
2018-12-30T23:30:36.011Z,11.57
2018-12-30T23:33:05.161Z,10.90
2018-12-30T23:35:34.305Z,11.50
2018-12-30T23:38:03.451Z,12.77
2018-12-30T23:40:32.589Z,10.90
2018-12-30T23:43:01.726Z,10.53
2018-12-30T23:45:30.852Z,11.33
2018-12-30T23:48:00.014Z,10.97
2018-12-30T23:50:29.151Z,9.10
2018-12-30T23:52:58.304Z,10.23
2018-12-30T23:55:27.447Z,11.20
2018-12-30T23:57:56.621Z,10.77
